sensor_id;sensor_type;location;lat;lon;timestamp;pressure;altitude;pressure_sealevel;temperature;humidity
43503;BME280;29098;48.184;16.298;2023-01-30T00:01:29;99849.84;;;-0.12;85.67
43503;BME280;29098;48.184;16.298;2023-01-30T00:03:56;99844.28;;;0.07;86.78
43503;BME280;29098;48.184;16.298;2023-01-30T00:06:21;99866.19;;;0.16;85.08
43503;BME280;29098;48.184;16.298;2023-01-30T00:08:47;99853.19;;;0.03;84.84
43503;BME280;29098;48.184;16.298;2023-01-30T00:11:13;99848.34;;;0.11;84.86
43503;BME280;29098;48.184;16.298;2023-01-30T00:13:39;99851.25;;;0.07;84.90
43503;BME280;29098;48.184;16.298;2023-01-30T00:16:05;99851.31;;;-0.08;85.38
43503;BME280;29098;48.184;16.298;2023-01-30T00:18:32;99839.22;;;0.06;85.15
43503;BME280;29098;48.184;16.298;2023-01-30T00:20:58;99840.16;;;0.05;85.10
43503;BME280;29098;48.184;16.298;2023-01-30T00:23:25;99805.78;;;-0.12;84.79
43503;BME280;29098;48.184;16.298;2023-01-30T00:25:51;99829.47;;;0.09;84.56
43503;BME280;29098;48.184;16.298;2023-01-30T00:28:16;99831.84;;;-0.01;84.85
43503;BME280;29098;48.184;16.298;2023-01-30T00:30:41;99821.69;;;-0.04;84.84
43503;BME280;29098;48.184;16.298;2023-01-30T00:33:07;99824.16;;;0.11;84.41
43503;BME280;29098;48.184;16.298;2023-01-30T00:35:33;99818.69;;;0.16;83.85
43503;BME280;29098;48.184;16.298;2023-01-30T00:37:59;99821.69;;;0.09;84.14
43503;BME280;29098;48.184;16.298;2023-01-30T00:40:25;99809.84;;;0.18;84.04
43503;BME280;29098;48.184;16.298;2023-01-30T00:42:51;99806.13;;;0.09;84.55
43503;BME280;29098;48.184;16.298;2023-01-30T00:45:35;99807.34;;;0.04;84.29
43503;BME280;29098;48.184;16.298;2023-01-30T00:48:21;99799.25;;;-0.18;85.33
43503;BME280;29098;48.184;16.298;2023-01-30T00:50:46;99804.88;;;0.02;84.45
43503;BME280;29098;48.184;16.298;2023-01-30T00:53:12;99795.78;;;0.09;84.54
43503;BME280;29098;48.184;16.298;2023-01-30T00:55:38;99795.84;;;-0.18;84.72
43503;BME280;29098;48.184;16.298;2023-01-30T00:58:04;99790.75;;;-0.07;84.81
43503;BME280;29098;48.184;16.298;2023-01-30T01:00:30;99779.59;;;-0.07;85.10
43503;BME280;29098;48.184;16.298;2023-01-30T01:02:55;99769.50;;;-0.12;85.20
43503;BME280;29098;48.184;16.298;2023-01-30T01:05:21;99779.34;;;-0.17;85.11
43503;BME280;29098;48.184;16.298;2023-01-30T01:07:46;99764.13;;;-0.09;84.82
43503;BME280;29098;48.184;16.298;2023-01-30T01:10:11;99761.44;;;0.06;84.17
43503;BME280;29098;48.184;16.298;2023-01-30T01:12:43;99756.75;;;-0.02;84.35
43503;BME280;29098;48.184;16.298;2023-01-30T01:15:09;99744.66;;;-0.02;84.19
43503;BME280;29098;48.184;16.298;2023-01-30T01:17:34;99740.81;;;-0.09;84.17
43503;BME280;29098;48.184;16.298;2023-01-30T01:20:00;99737.38;;;-0.22;84.75
43503;BME280;29098;48.184;16.298;2023-01-30T01:22:25;99735.22;;;-0.03;84.77
43503;BME280;29098;48.184;16.298;2023-01-30T01:24:50;99722.66;;;0.04;84.40
43503;BME280;29098;48.184;16.298;2023-01-30T01:27:16;99725.94;;;0.19;83.51
43503;BME280;29098;48.184;16.298;2023-01-30T01:29:43;99729.19;;;-0.03;84.42
43503;BME280;29098;48.184;16.298;2023-01-30T01:32:08;99727.94;;;-0.10;84.43
43503;BME280;29098;48.184;16.298;2023-01-30T01:34:34;99728.03;;;-0.12;84.71
43503;BME280;29098;48.184;16.298;2023-01-30T01:36:59;99723.59;;;-0.10;84.61
43503;BME280;29098;48.184;16.298;2023-01-30T01:39:24;99729.41;;;-0.19;84.95
43503;BME280;29098;48.184;16.298;2023-01-30T01:42:10;99712.81;;;-0.04;84.41
43503;BME280;29098;48.184;16.298;2023-01-30T01:44:55;99711.16;;;0.08;83.76
43503;BME280;29098;48.184;16.298;2023-01-30T01:47:20;99711.97;;;-0.04;83.85
43503;BME280;29098;48.184;16.298;2023-01-30T01:49:45;99701.94;;;-0.09;83.87
43503;BME280;29098;48.184;16.298;2023-01-30T01:52:12;99702.75;;;-0.21;84.57
43503;BME280;29098;48.184;16.298;2023-01-30T01:54:41;99707.09;;;-0.09;84.34
43503;BME280;29098;48.184;16.298;2023-01-30T01:57:09;99692.19;;;-0.18;84.12
43503;BME280;29098;48.184;16.298;2023-01-30T01:59:37;99698.72;;;-0.25;85.09
43503;BME280;29098;48.184;16.298;2023-01-30T02:02:08;99696.94;;;-0.12;84.27
43503;BME280;29098;48.184;16.298;2023-01-30T02:04:35;99685.66;;;-0.11;84.18
43503;BME280;29098;48.184;16.298;2023-01-30T02:07:21;99692.38;;;-0.08;83.88
43503;BME280;29098;48.184;16.298;2023-01-30T02:09:46;99691.88;;;-0.13;84.03
43503;BME280;29098;48.184;16.298;2023-01-30T02:12:12;99686.69;;;-0.01;83.53
43503;BME280;29098;48.184;16.298;2023-01-30T02:14:38;99675.91;;;-0.07;83.74
43503;BME280;29098;48.184;16.298;2023-01-30T02:17:04;99679.44;;;0.05;83.50
43503;BME280;29098;48.184;16.298;2023-01-30T02:22:48;99671.53;;;-0.07;83.38
43503;BME280;29098;48.184;16.298;2023-01-30T02:35:42;99665.44;;;-0.19;84.20
43503;BME280;29098;48.184;16.298;2023-01-30T02:38:22;99665.53;;;-0.20;84.46
43503;BME280;29098;48.184;16.298;2023-01-30T02:40:52;99661.59;;;-0.13;84.38
43503;BME280;29098;48.184;16.298;2023-01-30T02:48:33;99646.34;;;-0.18;84.38
43503;BME280;29098;48.184;16.298;2023-01-30T02:51:04;99634.66;;;-0.23;84.33
43503;BME280;29098;48.184;16.298;2023-01-30T02:53:31;99630.81;;;-0.18;84.47
43503;BME280;29098;48.184;16.298;2023-01-30T02:55:57;99630.06;;;-0.07;84.07
43503;BME280;29098;48.184;16.298;2023-01-30T02:58:23;99637.31;;;-0.12;84.40
43503;BME280;29098;48.184;16.298;2023-01-30T03:11:07;99610.16;;;0.07;82.97
43503;BME280;29098;48.184;16.298;2023-01-30T03:16:01;99611.28;;;0.03;82.57
43503;BME280;29098;48.184;16.298;2023-01-30T03:18:28;99605.16;;;0.04;83.20
43503;BME280;29098;48.184;16.298;2023-01-30T03:20:53;99602.88;;;0.12;82.56
43503;BME280;29098;48.184;16.298;2023-01-30T03:23:19;99600.06;;;0.15;82.20
43503;BME280;29098;48.184;16.298;2023-01-30T03:25:44;99591.50;;;0.02;83.26
43503;BME280;29098;48.184;16.298;2023-01-30T03:28:10;99599.06;;;0.05;82.87
43503;BME280;29098;48.184;16.298;2023-01-30T03:30:38;99592.94;;;0.06;82.99
43503;BME280;29098;48.184;16.298;2023-01-30T03:33:03;99591.50;;;0.02;82.98
43503;BME280;29098;48.184;16.298;2023-01-30T03:35:29;99590.44;;;0.04;82.84
43503;BME280;29098;48.184;16.298;2023-01-30T03:37:54;99593.13;;;0.16;82.34
43503;BME280;29098;48.184;16.298;2023-01-30T03:40:19;99579.22;;;0.17;81.76
43503;BME280;29098;48.184;16.298;2023-01-30T03:42:45;99570.09;;;0.11;82.17
43503;BME280;29098;48.184;16.298;2023-01-30T03:45:10;99564.63;;;0.03;82.39
43503;BME280;29098;48.184;16.298;2023-01-30T03:47:36;99558.84;;;-0.01;82.64
43503;BME280;29098;48.184;16.298;2023-01-30T03:50:01;99563.91;;;0.01;82.32
43503;BME280;29098;48.184;16.298;2023-01-30T03:52:26;99556.44;;;0.09;81.95
43503;BME280;29098;48.184;16.298;2023-01-30T03:54:52;99558.50;;;0.04;81.88
43503;BME280;29098;48.184;16.298;2023-01-30T03:57:17;99563.25;;;0.10;82.28
43503;BME280;29098;48.184;16.298;2023-01-30T03:59:42;99550.44;;;0.08;82.24
43503;BME280;29098;48.184;16.298;2023-01-30T04:02:08;99548.50;;;0.23;81.60
43503;BME280;29098;48.184;16.298;2023-01-30T04:04:33;99554.72;;;0.21;81.55
43503;BME280;29098;48.184;16.298;2023-01-30T04:06:59;99551.75;;;0.14;81.68
43503;BME280;29098;48.184;16.298;2023-01-30T04:09:24;99552.91;;;0.10;81.99
43503;BME280;29098;48.184;16.298;2023-01-30T04:11:50;99550.19;;;0.11;81.36
43503;BME280;29098;48.184;16.298;2023-01-30T04:14:15;99538.69;;;0.16;81.47
43503;BME280;29098;48.184;16.298;2023-01-30T04:16:41;99550.38;;;0.21;81.66
43503;BME280;29098;48.184;16.298;2023-01-30T04:19:06;99539.59;;;0.15;81.30
43503;BME280;29098;48.184;16.298;2023-01-30T04:21:31;99536.75;;;0.31;80.76
43503;BME280;29098;48.184;16.298;2023-01-30T04:23:56;99532.72;;;0.26;80.84
43503;BME280;29098;48.184;16.298;2023-01-30T04:26:22;99532.22;;;0.21;81.31
43503;BME280;29098;48.184;16.298;2023-01-30T04:28:47;99526.53;;;0.16;81.10
43503;BME280;29098;48.184;16.298;2023-01-30T04:31:12;99533.47;;;0.40;80.58
43503;BME280;29098;48.184;16.298;2023-01-30T04:33:38;99526.81;;;0.24;81.19
43503;BME280;29098;48.184;16.298;2023-01-30T04:36:04;99538.56;;;0.17;81.79
43503;BME280;29098;48.184;16.298;2023-01-30T04:38:30;99537.13;;;0.13;81.74
43503;BME280;29098;48.184;16.298;2023-01-30T04:40:56;99534.03;;;0.08;82.16
43503;BME280;29098;48.184;16.298;2023-01-30T04:43:22;99537.41;;;0.21;81.79
43503;BME280;29098;48.184;16.298;2023-01-30T04:45:48;99533.97;;;0.21;81.26
43503;BME280;29098;48.184;16.298;2023-01-30T04:48:14;99517.72;;;0.19;81.74
43503;BME280;29098;48.184;16.298;2023-01-30T04:50:40;99536.91;;;0.16;82.07
43503;BME280;29098;48.184;16.298;2023-01-30T04:53:05;99537.91;;;0.26;81.48
43503;BME280;29098;48.184;16.298;2023-01-30T04:55:30;99530.69;;;0.19;82.39
43503;BME280;29098;48.184;16.298;2023-01-30T04:57:56;99529.75;;;0.20;81.98
43503;BME280;29098;48.184;16.298;2023-01-30T05:00:21;99530.13;;;0.26;81.88
43503;BME280;29098;48.184;16.298;2023-01-30T05:02:46;99521.34;;;0.16;82.24
43503;BME280;29098;48.184;16.298;2023-01-30T05:05:12;99519.69;;;0.15;82.17
43503;BME280;29098;48.184;16.298;2023-01-30T05:07:37;99511.16;;;0.26;82.17
43503;BME280;29098;48.184;16.298;2023-01-30T05:10:03;99517.28;;;0.25;81.97
43503;BME280;29098;48.184;16.298;2023-01-30T05:12:28;99510.28;;;0.14;82.55
43503;BME280;29098;48.184;16.298;2023-01-30T05:14:54;99510.28;;;0.14;82.29
43503;BME280;29098;48.184;16.298;2023-01-30T05:17:20;99508.06;;;0.21;82.04
43503;BME280;29098;48.184;16.298;2023-01-30T05:19:45;99509.59;;;0.23;81.80
43503;BME280;29098;48.184;16.298;2023-01-30T05:22:10;99502.09;;;0.32;81.49
43503;BME280;29098;48.184;16.298;2023-01-30T05:24:36;99500.16;;;0.47;80.88
43503;BME280;29098;48.184;16.298;2023-01-30T05:27:01;99505.53;;;0.32;81.44
43503;BME280;29098;48.184;16.298;2023-01-30T05:29:27;99482.63;;;0.26;81.72
43503;BME280;29098;48.184;16.298;2023-01-30T05:31:52;99488.41;;;0.30;80.90
43503;BME280;29098;48.184;16.298;2023-01-30T05:34:17;99478.25;;;0.26;81.27
43503;BME280;29098;48.184;16.298;2023-01-30T05:36:42;99482.56;;;0.15;82.14
43503;BME280;29098;48.184;16.298;2023-01-30T05:39:08;99469.56;;;0.28;81.37
43503;BME280;29098;48.184;16.298;2023-01-30T05:41:33;99471.84;;;0.19;81.54
43503;BME280;29098;48.184;16.298;2023-01-30T05:43:58;99477.81;;;0.33;81.19
43503;BME280;29098;48.184;16.298;2023-01-30T05:46:24;99474.28;;;0.34;80.39
43503;BME280;29098;48.184;16.298;2023-01-30T05:48:49;99479.13;;;0.38;80.36
43503;BME280;29098;48.184;16.298;2023-01-30T05:51:18;99477.63;;;0.47;80.16
43503;BME280;29098;48.184;16.298;2023-01-30T05:53:44;99494.25;;;0.45;80.42
43503;BME280;29098;48.184;16.298;2023-01-30T05:56:09;99497.56;;;0.47;80.81
43503;BME280;29098;48.184;16.298;2023-01-30T05:58:35;99504.63;;;0.45;79.70
43503;BME280;29098;48.184;16.298;2023-01-30T06:01:04;99497.44;;;0.48;80.05
43503;BME280;29098;48.184;16.298;2023-01-30T06:03:30;99486.97;;;0.50;80.28
43503;BME280;29098;48.184;16.298;2023-01-30T06:05:55;99491.53;;;0.46;80.61
43503;BME280;29098;48.184;16.298;2023-01-30T06:08:21;99478.81;;;0.43;80.14
43503;BME280;29098;48.184;16.298;2023-01-30T06:10:46;99463.97;;;0.57;79.62
43503;BME280;29098;48.184;16.298;2023-01-30T06:13:11;99464.91;;;0.56;79.57
43503;BME280;29098;48.184;16.298;2023-01-30T06:15:37;99462.06;;;0.47;79.21
43503;BME280;29098;48.184;16.298;2023-01-30T06:18:02;99485.06;;;0.52;79.00
43503;BME280;29098;48.184;16.298;2023-01-30T06:20:27;99487.78;;;0.50;79.52
43503;BME280;29098;48.184;16.298;2023-01-30T06:22:53;99480.94;;;0.49;79.05
43503;BME280;29098;48.184;16.298;2023-01-30T06:25:18;99495.34;;;0.53;79.01
43503;BME280;29098;48.184;16.298;2023-01-30T06:27:44;99468.44;;;0.54;78.62
43503;BME280;29098;48.184;16.298;2023-01-30T06:30:10;99454.78;;;0.52;78.62
43503;BME280;29098;48.184;16.298;2023-01-30T06:32:37;99456.19;;;0.57;78.76
43503;BME280;29098;48.184;16.298;2023-01-30T06:35:02;99451.47;;;0.50;78.38
43503;BME280;29098;48.184;16.298;2023-01-30T06:37:28;99446.53;;;0.59;79.05
43503;BME280;29098;48.184;16.298;2023-01-30T06:39:53;99428.59;;;0.56;78.70
43503;BME280;29098;48.184;16.298;2023-01-30T06:42:18;99440.75;;;0.66;77.39
43503;BME280;29098;48.184;16.298;2023-01-30T06:44:43;99424.94;;;0.47;77.90
43503;BME280;29098;48.184;16.298;2023-01-30T06:47:09;99422.72;;;0.65;77.13
43503;BME280;29098;48.184;16.298;2023-01-30T06:49:34;99406.78;;;0.58;77.40
43503;BME280;29098;48.184;16.298;2023-01-30T06:51:59;99423.41;;;0.56;77.82
43503;BME280;29098;48.184;16.298;2023-01-30T06:54:25;99407.41;;;0.73;76.02
43503;BME280;29098;48.184;16.298;2023-01-30T06:56:50;99414.00;;;0.66;76.21
43503;BME280;29098;48.184;16.298;2023-01-30T06:59:15;99406.34;;;0.76;75.63
43503;BME280;29098;48.184;16.298;2023-01-30T07:01:41;99426.25;;;0.64;74.59
43503;BME280;29098;48.184;16.298;2023-01-30T07:04:06;99421.69;;;0.79;74.81
43503;BME280;29098;48.184;16.298;2023-01-30T07:06:31;99406.94;;;0.68;74.77
43503;BME280;29098;48.184;16.298;2023-01-30T07:08:57;99401.03;;;0.77;74.61
43503;BME280;29098;48.184;16.298;2023-01-30T07:11:25;99410.00;;;0.73;74.89
43503;BME280;29098;48.184;16.298;2023-01-30T07:13:51;99403.16;;;0.72;74.96
43503;BME280;29098;48.184;16.298;2023-01-30T07:16:16;99406.72;;;0.82;74.32
43503;BME280;29098;48.184;16.298;2023-01-30T07:18:41;99397.28;;;0.81;73.39
43503;BME280;29098;48.184;16.298;2023-01-30T07:21:07;99412.59;;;0.96;72.96
43503;BME280;29098;48.184;16.298;2023-01-30T07:23:32;99409.75;;;0.88;73.40
43503;BME280;29098;48.184;16.298;2023-01-30T07:25:57;99409.78;;;0.99;72.23
43503;BME280;29098;48.184;16.298;2023-01-30T07:28:23;99413.66;;;1.05;71.35
43503;BME280;29098;48.184;16.298;2023-01-30T07:30:48;99407.75;;;1.14;71.13
43503;BME280;29098;48.184;16.298;2023-01-30T07:33:17;99426.88;;;1.13;71.17
43503;BME280;29098;48.184;16.298;2023-01-30T07:35:42;99414.16;;;1.10;70.99
43503;BME280;29098;48.184;16.298;2023-01-30T07:38:07;99429.84;;;1.20;70.38
43503;BME280;29098;48.184;16.298;2023-01-30T07:40:33;99432.06;;;1.13;71.03
43503;BME280;29098;48.184;16.298;2023-01-30T07:43:02;99426.88;;;1.13;70.83
43503;BME280;29098;48.184;16.298;2023-01-30T07:45:35;99437.84;;;1.17;70.82
43503;BME280;29098;48.184;16.298;2023-01-30T07:48:00;99441.63;;;1.24;71.37
43503;BME280;29098;48.184;16.298;2023-01-30T07:50:26;99404.56;;;1.22;71.61
43503;BME280;29098;48.184;16.298;2023-01-30T07:52:51;99418.84;;;1.28;70.99
43503;BME280;29098;48.184;16.298;2023-01-30T07:55:16;99401.03;;;1.23;70.81
43503;BME280;29098;48.184;16.298;2023-01-30T07:57:42;99395.34;;;1.29;70.21
43503;BME280;29098;48.184;16.298;2023-01-30T08:00:07;99407.50;;;1.40;69.81
43503;BME280;29098;48.184;16.298;2023-01-30T08:02:35;99411.84;;;1.40;70.50
43503;BME280;29098;48.184;16.298;2023-01-30T08:05:00;99418.84;;;1.39;70.68
43503;BME280;29098;48.184;16.298;2023-01-30T08:07:25;99406.66;;;1.40;70.58
43503;BME280;29098;48.184;16.298;2023-01-30T08:09:51;99396.75;;;1.33;70.44
43503;BME280;29098;48.184;16.298;2023-01-30T08:12:16;99400.78;;;1.38;71.01
43503;BME280;29098;48.184;16.298;2023-01-30T08:14:41;99380.00;;;1.38;70.46
43503;BME280;29098;48.184;16.298;2023-01-30T08:17:07;99391.34;;;1.36;70.41
43503;BME280;29098;48.184;16.298;2023-01-30T08:19:32;99353.31;;;1.35;70.54
43503;BME280;29098;48.184;16.298;2023-01-30T08:21:58;99372.69;;;1.31;70.67
43503;BME280;29098;48.184;16.298;2023-01-30T08:24:23;99355.91;;;1.35;70.64
43503;BME280;29098;48.184;16.298;2023-01-30T08:26:48;99335.84;;;1.38;70.22
43503;BME280;29098;48.184;16.298;2023-01-30T08:29:14;99361.81;;;1.38;70.41
43503;BME280;29098;48.184;16.298;2023-01-30T08:31:39;99345.38;;;1.37;70.54
43503;BME280;29098;48.184;16.298;2023-01-30T08:34:04;99332.38;;;1.48;69.86
43503;BME280;29098;48.184;16.298;2023-01-30T08:36:30;99316.78;;;1.48;68.28
43503;BME280;29098;48.184;16.298;2023-01-30T08:38:55;99307.75;;;1.64;68.16
43503;BME280;29098;48.184;16.298;2023-01-30T08:41:21;99319.16;;;1.73;67.99
43503;BME280;29098;48.184;16.298;2023-01-30T08:43:46;99286.09;;;1.75;67.68
43503;BME280;29098;48.184;16.298;2023-01-30T08:46:12;99282.22;;;1.90;67.37
43503;BME280;29098;48.184;16.298;2023-01-30T08:48:37;99285.91;;;1.88;66.96
43503;BME280;29098;48.184;16.298;2023-01-30T08:51:04;99262.22;;;2.12;66.07
43503;BME280;29098;48.184;16.298;2023-01-30T08:53:30;99278.06;;;2.09;64.91
43503;BME280;29098;48.184;16.298;2023-01-30T08:55:55;99284.97;;;2.20;64.49
43503;BME280;29098;48.184;16.298;2023-01-30T08:58:20;99295.69;;;2.27;63.86
43503;BME280;29098;48.184;16.298;2023-01-30T09:00:46;99274.38;;;2.33;63.75
43503;BME280;29098;48.184;16.298;2023-01-30T09:03:15;99288.59;;;2.29;64.73
43503;BME280;29098;48.184;16.298;2023-01-30T09:05:41;99286.78;;;2.19;64.53
43503;BME280;29098;48.184;16.298;2023-01-30T09:08:07;99276.63;;;2.16;64.79
43503;BME280;29098;48.184;16.298;2023-01-30T09:10:32;99277.84;;;2.12;66.21
43503;BME280;29098;48.184;16.298;2023-01-30T09:12:58;99284.19;;;2.29;65.87
43503;BME280;29098;48.184;16.298;2023-01-30T09:15:23;99268.06;;;2.36;65.10
43503;BME280;29098;48.184;16.298;2023-01-30T09:17:50;99281.88;;;2.26;64.26
43503;BME280;29098;48.184;16.298;2023-01-30T09:20:15;99254.34;;;2.24;65.00
43503;BME280;29098;48.184;16.298;2023-01-30T09:22:42;99262.13;;;2.24;64.58
43503;BME280;29098;48.184;16.298;2023-01-30T09:25:08;99263.38;;;2.19;63.65
43503;BME280;29098;48.184;16.298;2023-01-30T09:27:33;99271.91;;;2.10;64.27
43503;BME280;29098;48.184;16.298;2023-01-30T09:29:59;99279.28;;;2.26;64.51
43503;BME280;29098;48.184;16.298;2023-01-30T09:32:24;99274.91;;;2.05;64.22
43503;BME280;29098;48.184;16.298;2023-01-30T09:34:49;99265.63;;;2.13;64.72
43503;BME280;29098;48.184;16.298;2023-01-30T09:37:15;99270.50;;;2.27;64.71
43503;BME280;29098;48.184;16.298;2023-01-30T09:39:40;99257.22;;;2.21;63.73
43503;BME280;29098;48.184;16.298;2023-01-30T09:42:12;99280.34;;;2.24;62.63
43503;BME280;29098;48.184;16.298;2023-01-30T09:55:02;99234.97;;;2.47;62.32
43503;BME280;29098;48.184;16.298;2023-01-30T09:57:38;99216.09;;;2.45;62.70
43503;BME280;29098;48.184;16.298;2023-01-30T10:00:14;99227.50;;;2.64;62.49
43503;BME280;29098;48.184;16.298;2023-01-30T10:05:09;99173.84;;;2.83;63.10
43503;BME280;29098;48.184;16.298;2023-01-30T10:10:20;99146.56;;;3.07;63.87
43503;BME280;29098;48.184;16.298;2023-01-30T10:23:24;99136.34;;;3.53;64.52
43503;BME280;29098;48.184;16.298;2023-01-30T10:26:03;99138.91;;;3.63;64.66
43503;BME280;29098;48.184;16.298;2023-01-30T10:28:36;99140.44;;;3.65;63.85
43503;BME280;29098;48.184;16.298;2023-01-30T10:31:03;99129.47;;;3.52;63.79
43503;BME280;29098;48.184;16.298;2023-01-30T10:33:37;99131.94;;;3.53;64.61
43503;BME280;29098;48.184;16.298;2023-01-30T10:36:17;99126.50;;;3.37;65.18
43503;BME280;29098;48.184;16.298;2023-01-30T10:38:48;99130.91;;;3.26;65.83
43503;BME280;29098;48.184;16.298;2023-01-30T10:43:42;99133.25;;;3.29;66.57
43503;BME280;29098;48.184;16.298;2023-01-30T10:48:59;99112.75;;;3.54;65.61
43503;BME280;29098;48.184;16.298;2023-01-30T10:51:47;99113.28;;;3.58;65.45
43503;BME280;29098;48.184;16.298;2023-01-30T10:54:27;99123.38;;;3.71;64.80
43503;BME280;29098;48.184;16.298;2023-01-30T10:57:01;99119.19;;;3.98;64.21
43503;BME280;29098;48.184;16.298;2023-01-30T10:59:50;99108.44;;;4.29;64.52
43503;BME280;29098;48.184;16.298;2023-01-30T11:04:41;99112.56;;;4.86;61.94
43503;BME280;29098;48.184;16.298;2023-01-30T11:07:10;99110.91;;;5.03;61.17
43503;BME280;29098;48.184;16.298;2023-01-30T11:09:39;99099.22;;;4.89;59.49
43503;BME280;29098;48.184;16.298;2023-01-30T11:12:04;99085.94;;;5.09;58.24
43503;BME280;29098;48.184;16.298;2023-01-30T11:14:42;99095.38;;;5.28;57.95
43503;BME280;29098;48.184;16.298;2023-01-30T11:17:15;99096.25;;;5.64;56.04
43503;BME280;29098;48.184;16.298;2023-01-30T11:19:40;99088.78;;;6.12;54.76
43503;BME280;29098;48.184;16.298;2023-01-30T11:22:06;99086.41;;;5.92;55.62
43503;BME280;29098;48.184;16.298;2023-01-30T11:24:37;99078.38;;;6.20;55.71
43503;BME280;29098;48.184;16.298;2023-01-30T11:27:16;99089.75;;;6.02;53.18
43503;BME280;29098;48.184;16.298;2023-01-30T11:29:42;99068.22;;;6.25;53.59
43503;BME280;29098;48.184;16.298;2023-01-30T11:32:11;99044.97;;;6.14;51.86
43503;BME280;29098;48.184;16.298;2023-01-30T11:34:38;99086.72;;;5.89;53.23
43503;BME280;29098;48.184;16.298;2023-01-30T11:37:14;99058.22;;;6.12;53.35
43503;BME280;29098;48.184;16.298;2023-01-30T11:39:48;99007.38;;;6.56;51.47
43503;BME280;29098;48.184;16.298;2023-01-30T11:42:14;99025.19;;;6.28;51.02
43503;BME280;29098;48.184;16.298;2023-01-30T11:44:43;99023.34;;;6.12;51.82
43503;BME280;29098;48.184;16.298;2023-01-30T11:47:11;99032.75;;;6.48;51.43
43503;BME280;29098;48.184;16.298;2023-01-30T11:49:45;99008.13;;;6.07;50.87
43503;BME280;29098;48.184;16.298;2023-01-30T11:52:15;99000.72;;;5.94;51.76
43503;BME280;29098;48.184;16.298;2023-01-30T11:54:41;98966.44;;;6.06;51.13
43503;BME280;29098;48.184;16.298;2023-01-30T11:57:12;98981.81;;;6.09;51.79
43503;BME280;29098;48.184;16.298;2023-01-30T11:59:48;98973.00;;;6.26;51.55
43503;BME280;29098;48.184;16.298;2023-01-30T12:02:29;98989.03;;;6.65;51.42
43503;BME280;29098;48.184;16.298;2023-01-30T12:04:56;98957.91;;;6.70;51.05
43503;BME280;29098;48.184;16.298;2023-01-30T12:07:24;98964.00;;;6.37;50.92
43503;BME280;29098;48.184;16.298;2023-01-30T12:09:50;98952.72;;;6.45;51.46
43503;BME280;29098;48.184;16.298;2023-01-30T12:12:32;98924.22;;;6.42;51.34
43503;BME280;29098;48.184;16.298;2023-01-30T12:17:41;98895.88;;;6.62;51.40
43503;BME280;29098;48.184;16.298;2023-01-30T12:20:13;98937.63;;;6.64;50.83
43503;BME280;29098;48.184;16.298;2023-01-30T12:22:53;98935.84;;;6.56;51.06
43503;BME280;29098;48.184;16.298;2023-01-30T12:25:24;98942.41;;;6.10;52.88
43503;BME280;29098;48.184;16.298;2023-01-30T12:30:24;98933.03;;;5.99;53.68
43503;BME280;29098;48.184;16.298;2023-01-30T12:32:51;98953.28;;;5.89;54.11
43503;BME280;29098;48.184;16.298;2023-01-30T12:35:21;98951.88;;;5.43;55.57
43503;BME280;29098;48.184;16.298;2023-01-30T12:40:24;98952.50;;;5.02;57.42
43503;BME280;29098;48.184;16.298;2023-01-30T12:45:30;98966.69;;;5.00;59.15
43503;BME280;29098;48.184;16.298;2023-01-30T12:50:28;98964.13;;;5.08;59.65
43503;BME280;29098;48.184;16.298;2023-01-30T13:03:22;98978.53;;;4.59;61.93
43503;BME280;29098;48.184;16.298;2023-01-30T13:13:38;98970.28;;;4.09;67.23
43503;BME280;29098;48.184;16.298;2023-01-30T13:18:53;98999.88;;;3.72;71.70
43503;BME280;29098;48.184;16.298;2023-01-30T13:21:32;98990.06;;;3.66;73.42
43503;BME280;29098;48.184;16.298;2023-01-30T13:26:40;98977.03;;;3.66;75.62
43503;BME280;29098;48.184;16.298;2023-01-30T13:29:14;98981.66;;;3.44;76.42
43503;BME280;29098;48.184;16.298;2023-01-30T13:31:43;98989.31;;;3.46;78.94
43503;BME280;29098;48.184;16.298;2023-01-30T13:34:18;98987.63;;;3.54;79.89
43503;BME280;29098;48.184;16.298;2023-01-30T13:36:48;98983.38;;;3.81;78.67
43503;BME280;29098;48.184;16.298;2023-01-30T13:41:48;99011.41;;;3.04;86.40
43503;BME280;29098;48.184;16.298;2023-01-30T13:44:16;99000.69;;;3.17;87.32
43503;BME280;29098;48.184;16.298;2023-01-30T13:46:45;98994.44;;;2.90;88.86
43503;BME280;29098;48.184;16.298;2023-01-30T13:49:20;99005.09;;;2.96;89.70
43503;BME280;29098;48.184;16.298;2023-01-30T13:57:23;98992.28;;;2.65;95.19
43503;BME280;29098;48.184;16.298;2023-01-30T14:02:33;98985.19;;;2.67;93.27
43503;BME280;29098;48.184;16.298;2023-01-30T14:04:58;98954.75;;;2.58;96.02
43503;BME280;29098;48.184;16.298;2023-01-30T14:07:28;98969.56;;;2.57;95.93
43503;BME280;29098;48.184;16.298;2023-01-30T14:10:03;98955.28;;;2.71;95.01
43503;BME280;29098;48.184;16.298;2023-01-30T14:12:36;98963.53;;;2.67;95.00
43503;BME280;29098;48.184;16.298;2023-01-30T14:17:35;98963.22;;;2.80;96.73
43503;BME280;29098;48.184;16.298;2023-01-30T14:20:18;98932.03;;;2.70;97.44
43503;BME280;29098;48.184;16.298;2023-01-30T14:22:50;98935.19;;;2.73;98.38
43503;BME280;29098;48.184;16.298;2023-01-30T14:30:36;98911.22;;;2.70;94.58
43503;BME280;29098;48.184;16.298;2023-01-30T14:35:46;98912.19;;;2.97;91.54
43503;BME280;29098;48.184;16.298;2023-01-30T14:38:16;98913.03;;;2.97;92.28
43503;BME280;29098;48.184;16.298;2023-01-30T14:41:14;98896.16;;;3.01;90.17
43503;BME280;29098;48.184;16.298;2023-01-30T14:46:03;98917.88;;;3.20;91.43
43503;BME280;29098;48.184;16.298;2023-01-30T14:56:21;98942.94;;;3.49;88.18
43503;BME280;29098;48.184;16.298;2023-01-30T14:59:00;98960.47;;;3.57;86.98
43503;BME280;29098;48.184;16.298;2023-01-30T15:01:26;98961.72;;;3.53;87.29
43503;BME280;29098;48.184;16.298;2023-01-30T15:03:52;98936.00;;;3.40;87.08
43503;BME280;29098;48.184;16.298;2023-01-30T15:06:17;98938.94;;;3.27;87.17
43503;BME280;29098;48.184;16.298;2023-01-30T15:08:44;98972.59;;;3.38;86.42
43503;BME280;29098;48.184;16.298;2023-01-30T15:13:56;98968.75;;;3.42;86.53
43503;BME280;29098;48.184;16.298;2023-01-30T15:26:33;98992.38;;;3.31;86.88